ENSK

Stokmarknes Skagen Airport

Hadsel, Norway
METAR ENSK 171850Z 04005KT 9999 SCT035 02/01 Q1042
Observed Flight Rules
Nov-17 @ 18:50 UTC (3 hours ago) Visual Flight Rules
Wind Visibility Clouds
40° at 5 knots 10,000+ meters
  • Scattered at 3,500' AGL
Temperatures Readings
Current 2°C / 36°F
Dewpoint 1°C / 34°F
Humidity 93%
Altimeter 30.77" Hg
Pressure 1042 hPa
Elevation 3
METAR ENSK 171850Z 04005KT 9999 SCT035 02/01 Q1042
Observed Flight Rules
Nov-17 @ 18:50 UTC
(3 hours ago)
VFR
Wind Visibility
40° at 5 knots 10,000+ meters
Clouds
  • Scattered at 3,500' AGL
Temperature Dewpoint
2°C / 36°F 1°C / 34°F
Humidity Altimeter Pressure
93% 30.77" Hg 1042 hPa